sensor_id;sensor_type;location;lat;lon;timestamp;pressure;altitude;pressure_sealevel;temperature;humidity
21779;BME280;11050;52.222;20.916;2023-02-25T00:01:26;97912.59;;;5.51;100.00
21779;BME280;11050;52.222;20.916;2023-02-25T00:03:54;97920.19;;;5.59;100.00
21779;BME280;11050;52.222;20.916;2023-02-25T00:06:21;97913.13;;;5.53;100.00
21779;BME280;11050;52.222;20.916;2023-02-25T00:08:49;97910.69;;;5.52;100.00
21779;BME280;11050;52.222;20.916;2023-02-25T00:11:17;97909.88;;;5.51;100.00
21779;BME280;11050;52.222;20.916;2023-02-25T00:13:44;97908.50;;;5.54;100.00
21779;BME280;11050;52.222;20.916;2023-02-25T00:16:11;97895.69;;;5.54;100.00
21779;BME280;11050;52.222;20.916;2023-02-25T00:18:38;97901.66;;;5.56;100.00
21779;BME280;11050;52.222;20.916;2023-02-25T00:21:08;97899.22;;;5.60;100.00
21779;BME280;11050;52.222;20.916;2023-02-25T00:23:41;97886.69;;;5.59;100.00
21779;BME280;11050;52.222;20.916;2023-02-25T00:26:06;97888.03;;;5.61;100.00
21779;BME280;11050;52.222;20.916;2023-02-25T00:28:34;97884.22;;;5.62;100.00
21779;BME280;11050;52.222;20.916;2023-02-25T00:31:13;97885.56;;;5.65;100.00
21779;BME280;11050;52.222;20.916;2023-02-25T00:33:40;97881.19;;;5.69;100.00
21779;BME280;11050;52.222;20.916;2023-02-25T00:36:11;97880.31;;;5.73;100.00
21779;BME280;11050;52.222;20.916;2023-02-25T00:38:37;97883.03;;;5.73;100.00
21779;BME280;11050;52.222;20.916;2023-02-25T00:41:10;97877.94;;;5.67;100.00
21779;BME280;11050;52.222;20.916;2023-02-25T00:43:41;97881.19;;;5.69;100.00
21779;BME280;11050;52.222;20.916;2023-02-25T00:46:10;97874.38;;;5.66;100.00
21779;BME280;11050;52.222;20.916;2023-02-25T00:48:37;97865.13;;;5.67;100.00
21779;BME280;11050;52.222;20.916;2023-02-25T00:51:13;97862.41;;;5.67;100.00
21779;BME280;11050;52.222;20.916;2023-02-25T00:53:39;97849.03;;;5.66;100.00
21779;BME280;11050;52.222;20.916;2023-02-25T00:56:08;97852.00;;;5.74;100.00
21779;BME280;11050;52.222;20.916;2023-02-25T00:58:36;97857.97;;;5.76;100.00
21779;BME280;11050;52.222;20.916;2023-02-25T01:01:22;97843.81;;;5.74;100.00
21779;BME280;11050;52.222;20.916;2023-02-25T01:03:50;97828.06;;;5.66;100.00
21779;BME280;11050;52.222;20.916;2023-02-25T01:06:16;97847.66;;;5.68;100.00
21779;BME280;11050;52.222;20.916;2023-02-25T01:08:43;97835.75;;;5.59;100.00
21779;BME280;11050;52.222;20.916;2023-02-25T01:11:24;97841.75;;;5.56;100.00
21779;BME280;11050;52.222;20.916;2023-02-25T01:14:10;97841.47;;;5.58;100.00
21779;BME280;11050;52.222;20.916;2023-02-25T01:16:37;97835.25;;;5.52;100.00
21779;BME280;11050;52.222;20.916;2023-02-25T01:19:11;97815.72;;;5.40;100.00
21779;BME280;11050;52.222;20.916;2023-02-25T01:21:41;97820.59;;;5.43;100.00
21779;BME280;11050;52.222;20.916;2023-02-25T01:24:24;97807.84;;;5.34;100.00
21779;BME280;11050;52.222;20.916;2023-02-25T01:26:53;97813.56;;;5.37;100.00
21779;BME280;11050;52.222;20.916;2023-02-25T01:29:23;97818.47;;;5.35;100.00
21779;BME280;11050;52.222;20.916;2023-02-25T01:31:53;97804.09;;;5.25;100.00
21779;BME280;11050;52.222;20.916;2023-02-25T01:34:20;97804.41;;;5.18;100.00
21779;BME280;11050;52.222;20.916;2023-02-25T01:36:46;97798.97;;;5.18;100.00
21779;BME280;11050;52.222;20.916;2023-02-25T01:39:15;97796.31;;;5.03;100.00
21779;BME280;11050;52.222;20.916;2023-02-25T01:41:41;97784.66;;;4.93;100.00
21779;BME280;11050;52.222;20.916;2023-02-25T01:46:53;97786.03;;;4.85;100.00
21779;BME280;11050;52.222;20.916;2023-02-25T01:49:39;97786.28;;;4.89;100.00
21779;BME280;11050;52.222;20.916;2023-02-25T01:52:22;97791.72;;;4.89;100.00
21779;BME280;11050;52.222;20.916;2023-02-25T01:54:54;97774.34;;;4.90;100.00
21779;BME280;11050;52.222;20.916;2023-02-25T01:57:23;97762.13;;;4.82;100.00
21779;BME280;11050;52.222;20.916;2023-02-25T01:59:52;97764.31;;;4.80;100.00
21779;BME280;11050;52.222;20.916;2023-02-25T02:02:21;97759.69;;;4.80;100.00
21779;BME280;11050;52.222;20.916;2023-02-25T02:04:51;97746.88;;;4.86;100.00
21779;BME280;11050;52.222;20.916;2023-02-25T02:07:19;97745.28;;;4.80;100.00
21779;BME280;11050;52.222;20.916;2023-02-25T02:09:45;97740.91;;;4.79;100.00
21779;BME280;11050;52.222;20.916;2023-02-25T02:12:22;97747.41;;;4.83;100.00
21779;BME280;11050;52.222;20.916;2023-02-25T02:14:49;97748.50;;;4.87;100.00
21779;BME280;11050;52.222;20.916;2023-02-25T02:17:41;97750.66;;;4.90;100.00
21779;BME280;11050;52.222;20.916;2023-02-25T02:22:57;97725.91;;;4.87;100.00
21779;BME280;11050;52.222;20.916;2023-02-25T02:29:04;97722.09;;;4.88;100.00
21779;BME280;11050;52.222;20.916;2023-02-25T02:31:50;97722.41;;;4.86;100.00
21779;BME280;11050;52.222;20.916;2023-02-25T02:35:19;97709.88;;;4.90;100.00
21779;BME280;11050;52.222;20.916;2023-02-25T02:38:02;97716.09;;;4.91;100.00
21779;BME280;11050;52.222;20.916;2023-02-25T02:44:00;97709.00;;;4.95;100.00
21779;BME280;11050;52.222;20.916;2023-02-25T02:46:37;97699.75;;;4.96;100.00
21779;BME280;11050;52.222;20.916;2023-02-25T02:49:44;97700.59;;;4.91;100.00
21779;BME280;11050;52.222;20.916;2023-02-25T02:52:31;97697.91;;;4.86;100.00
21779;BME280;11050;52.222;20.916;2023-02-25T02:55:18;97676.41;;;4.84;100.00
21779;BME280;11050;52.222;20.916;2023-02-25T02:57:49;97680.44;;;4.92;100.00
21779;BME280;11050;52.222;20.916;2023-02-25T03:00:21;97670.94;;;4.90;100.00
21779;BME280;11050;52.222;20.916;2023-02-25T03:03:24;97685.88;;;4.92;100.00
21779;BME280;11050;52.222;20.916;2023-02-25T03:06:04;97685.88;;;4.92;100.00
21779;BME280;11050;52.222;20.916;2023-02-25T03:08:41;97684.22;;;4.96;100.00
21779;BME280;11050;52.222;20.916;2023-02-25T03:11:10;97678.81;;;4.91;100.00
21779;BME280;11050;52.222;20.916;2023-02-25T03:13:36;97679.06;;;4.95;100.00
21779;BME280;11050;52.222;20.916;2023-02-25T03:16:09;97679.94;;;4.90;100.00
21779;BME280;11050;52.222;20.916;2023-02-25T03:18:41;97673.44;;;4.86;100.00
21779;BME280;11050;52.222;20.916;2023-02-25T03:21:17;97684.31;;;4.86;100.00
21779;BME280;11050;52.222;20.916;2023-02-25T03:23:46;97681.59;;;4.86;100.00
21779;BME280;11050;52.222;20.916;2023-02-25T03:26:30;97676.16;;;4.86;100.00
21779;BME280;11050;52.222;20.916;2023-02-25T03:28:57;97681.06;;;4.84;100.00
21779;BME280;11050;52.222;20.916;2023-02-25T03:31:46;97677.81;;;4.77;100.00
21779;BME280;11050;52.222;20.916;2023-02-25T03:34:27;97669.66;;;4.77;100.00
21779;BME280;11050;52.222;20.916;2023-02-25T03:37:01;97668.31;;;4.74;100.00
21779;BME280;11050;52.222;20.916;2023-02-25T03:39:32;97678.13;;;4.70;100.00
21779;BME280;11050;52.222;20.916;2023-02-25T03:42:03;97685.47;;;4.75;100.00
21779;BME280;11050;52.222;20.916;2023-02-25T03:44:48;97689.88;;;4.61;100.00
21779;BME280;11050;52.222;20.916;2023-02-25T03:47:16;97681.47;;;4.57;100.00
21779;BME280;11050;52.222;20.916;2023-02-25T03:49:58;97697.28;;;4.50;100.00
21779;BME280;11050;52.222;20.916;2023-02-25T03:52:28;97689.44;;;4.39;100.00
21779;BME280;11050;52.222;20.916;2023-02-25T03:54:56;97691.91;;;4.30;100.00
21779;BME280;11050;52.222;20.916;2023-02-25T03:57:25;97695.72;;;4.24;100.00
21779;BME280;11050;52.222;20.916;2023-02-25T03:59:52;97684.63;;;4.16;100.00
21779;BME280;11050;52.222;20.916;2023-02-25T04:02:27;97679.47;;;4.09;100.00
21779;BME280;11050;52.222;20.916;2023-02-25T04:04:55;97673.53;;;3.97;100.00
21779;BME280;11050;52.222;20.916;2023-02-25T04:07:21;97683.06;;;4.00;100.00
21779;BME280;11050;52.222;20.916;2023-02-25T04:09:47;97695.03;;;3.83;100.00
21779;BME280;11050;52.222;20.916;2023-02-25T04:12:13;97686.88;;;3.78;100.00
21779;BME280;11050;52.222;20.916;2023-02-25T04:14:40;97683.13;;;3.69;100.00
21779;BME280;11050;52.222;20.916;2023-02-25T04:17:05;97687.72;;;3.69;100.00
21779;BME280;11050;52.222;20.916;2023-02-25T04:19:31;97705.91;;;3.63;100.00
21779;BME280;11050;52.222;20.916;2023-02-25T04:21:58;97691.25;;;3.64;100.00
21779;BME280;11050;52.222;20.916;2023-02-25T04:24:25;97702.13;;;3.59;100.00
21779;BME280;11050;52.222;20.916;2023-02-25T04:26:51;97688.81;;;3.53;100.00
21779;BME280;11050;52.222;20.916;2023-02-25T04:29:23;97695.63;;;3.50;100.00
21779;BME280;11050;52.222;20.916;2023-02-25T04:31:51;97689.09;;;3.46;100.00
21779;BME280;11050;52.222;20.916;2023-02-25T04:34:17;97693.16;;;3.54;100.00
21779;BME280;11050;52.222;20.916;2023-02-25T04:36:44;97692.88;;;3.55;100.00
21779;BME280;11050;52.222;20.916;2023-02-25T04:39:12;97702.13;;;3.54;100.00
21779;BME280;11050;52.222;20.916;2023-02-25T04:41:38;97690.72;;;3.47;100.00
21779;BME280;11050;52.222;20.916;2023-02-25T04:44:06;97690.44;;;3.44;100.00
21779;BME280;11050;52.222;20.916;2023-02-25T04:46:37;97683.38;;;3.48;100.00
21779;BME280;11050;52.222;20.916;2023-02-25T04:49:05;97686.91;;;3.53;100.00
21779;BME280;11050;52.222;20.916;2023-02-25T04:51:30;97679.59;;;3.54;100.00
21779;BME280;11050;52.222;20.916;2023-02-25T04:53:58;97690.16;;;3.55;100.00
21779;BME280;11050;52.222;20.916;2023-02-25T04:56:24;97684.75;;;3.55;100.00
21779;BME280;11050;52.222;20.916;2023-02-25T04:58:49;97675.50;;;3.51;100.00
21779;BME280;11050;52.222;20.916;2023-02-25T05:01:15;97671.19;;;3.50;100.00
21779;BME280;11050;52.222;20.916;2023-02-25T05:03:41;97677.97;;;3.48;100.00
21779;BME280;11050;52.222;20.916;2023-02-25T05:06:08;97682.84;;;3.51;100.00
21779;BME280;11050;52.222;20.916;2023-02-25T05:08:35;97667.91;;;3.53;100.00
21779;BME280;11050;52.222;20.916;2023-02-25T05:11:02;97669.81;;;3.58;100.00
21779;BME280;11050;52.222;20.916;2023-02-25T05:13:28;97672.78;;;3.56;100.00
21779;BME280;11050;52.222;20.916;2023-02-25T05:16:10;97672.53;;;3.48;100.00
21779;BME280;11050;52.222;20.916;2023-02-25T05:18:39;97674.97;;;3.49;100.00
21779;BME280;11050;52.222;20.916;2023-02-25T05:21:10;97675.81;;;3.45;100.00
21779;BME280;11050;52.222;20.916;2023-02-25T05:23:41;97671.16;;;3.45;100.00
21779;BME280;11050;52.222;20.916;2023-02-25T05:26:08;97677.69;;;3.49;100.00
21779;BME280;11050;52.222;20.916;2023-02-25T05:28:34;97674.44;;;3.47;100.00
21779;BME280;11050;52.222;20.916;2023-02-25T05:31:09;97683.09;;;3.49;100.00
21779;BME280;11050;52.222;20.916;2023-02-25T05:33:37;97688.00;;;3.47;100.00
21779;BME280;11050;52.222;20.916;2023-02-25T05:36:12;97687.72;;;3.49;100.00
21779;BME280;11050;52.222;20.916;2023-02-25T05:38:39;97689.91;;;3.47;100.00
21779;BME280;11050;52.222;20.916;2023-02-25T05:41:06;97687.44;;;3.45;100.00
21779;BME280;11050;52.222;20.916;2023-02-25T05:43:33;97685.31;;;3.37;100.00
21779;BME280;11050;52.222;20.916;2023-02-25T05:46:00;97676.06;;;3.28;100.00
21779;BME280;11050;52.222;20.916;2023-02-25T05:48:31;97681.50;;;3.38;100.00
21779;BME280;11050;52.222;20.916;2023-02-25T05:51:07;97690.72;;;3.37;100.00
21779;BME280;11050;52.222;20.916;2023-02-25T05:53:33;97692.88;;;3.30;100.00
21779;BME280;11050;52.222;20.916;2023-02-25T05:56:05;97690.44;;;3.34;100.00
21779;BME280;11050;52.222;20.916;2023-02-25T05:58:32;97695.88;;;3.39;100.00
21779;BME280;11050;52.222;20.916;2023-02-25T06:00:58;97692.63;;;3.47;100.00
21779;BME280;11050;52.222;20.916;2023-02-25T06:03:24;97686.94;;;3.48;100.00
21779;BME280;11050;52.222;20.916;2023-02-25T06:05:50;97689.91;;;3.47;100.00
21779;BME280;11050;52.222;20.916;2023-02-25T06:08:17;97689.38;;;3.50;100.00
21779;BME280;11050;52.222;20.916;2023-02-25T06:10:43;97687.72;;;3.49;100.00
21779;BME280;11050;52.222;20.916;2023-02-25T06:13:10;97695.34;;;3.52;100.00
21779;BME280;11050;52.222;20.916;2023-02-25T06:15:41;97693.44;;;3.52;100.00
21779;BME280;11050;52.222;20.916;2023-02-25T06:18:08;97681.22;;;3.50;100.00
21779;BME280;11050;52.222;20.916;2023-02-25T06:20:34;97693.16;;;3.59;100.00
21779;BME280;11050;52.222;20.916;2023-02-25T06:23:01;97689.91;;;3.62;100.00
21779;BME280;11050;52.222;20.916;2023-02-25T06:25:27;97699.66;;;3.68;100.00
21779;BME280;11050;52.222;20.916;2023-02-25T06:27:56;97689.34;;;3.70;100.00
21779;BME280;11050;52.222;20.916;2023-02-25T06:30:22;97693.16;;;3.69;100.00
21779;BME280;11050;52.222;20.916;2023-02-25T06:32:48;97697.19;;;3.71;100.00
21779;BME280;11050;52.222;20.916;2023-02-25T06:35:13;97685.81;;;3.74;100.00
21779;BME280;11050;52.222;20.916;2023-02-25T06:37:39;97681.47;;;3.78;100.00
21779;BME280;11050;52.222;20.916;2023-02-25T06:40:06;97689.31;;;3.80;100.00
21779;BME280;11050;52.222;20.916;2023-02-25T06:42:37;97694.22;;;3.78;100.00
21779;BME280;11050;52.222;20.916;2023-02-25T06:45:03;97687.16;;;3.77;100.00
21779;BME280;11050;52.222;20.916;2023-02-25T06:47:29;97692.88;;;3.80;100.00
21779;BME280;11050;52.222;20.916;2023-02-25T06:49:56;97693.41;;;3.72;100.00
21779;BME280;11050;52.222;20.916;2023-02-25T06:52:22;97691.22;;;3.79;100.00
21779;BME280;11050;52.222;20.916;2023-02-25T06:54:49;97687.97;;;3.77;100.00
21779;BME280;11050;52.222;20.916;2023-02-25T06:57:15;97692.84;;;3.75;100.00
21779;BME280;11050;52.222;20.916;2023-02-25T06:59:41;97686.63;;;3.80;100.00
21779;BME280;11050;52.222;20.916;2023-02-25T07:02:11;97687.97;;;3.82;100.00
21779;BME280;11050;52.222;20.916;2023-02-25T07:04:38;97677.63;;;3.90;100.00
21779;BME280;11050;52.222;20.916;2023-02-25T07:07:04;97684.13;;;3.88;100.00
21779;BME280;11050;52.222;20.916;2023-02-25T07:09:30;97686.84;;;3.88;100.00
21779;BME280;11050;52.222;20.916;2023-02-25T07:11:56;97683.31;;;3.93;100.00
21779;BME280;11050;52.222;20.916;2023-02-25T07:14:22;97684.13;;;3.99;100.00
21779;BME280;11050;52.222;20.916;2023-02-25T07:16:48;97689.00;;;4.02;100.00
21779;BME280;11050;52.222;20.916;2023-02-25T07:19:14;97693.34;;;4.13;100.00
21779;BME280;11050;52.222;20.916;2023-02-25T07:21:42;97697.66;;;4.14;100.00
21779;BME280;11050;52.222;20.916;2023-02-25T07:24:12;97692.50;;;4.17;100.00
21779;BME280;11050;52.222;20.916;2023-02-25T07:26:38;97683.00;;;4.15;100.00
21779;BME280;11050;52.222;20.916;2023-02-25T07:29:05;97692.19;;;4.19;100.00
21779;BME280;11050;52.222;20.916;2023-02-25T07:31:31;97694.66;;;4.25;100.00
21779;BME280;11050;52.222;20.916;2023-02-25T07:33:58;97692.75;;;4.21;100.00
21779;BME280;11050;52.222;20.916;2023-02-25T07:36:34;97688.94;;;4.22;100.00
21779;BME280;11050;52.222;20.916;2023-02-25T07:39:03;97689.50;;;4.24;100.00
21779;BME280;11050;52.222;20.916;2023-02-25T07:41:31;97686.19;;;4.32;100.00
21779;BME280;11050;52.222;20.916;2023-02-25T07:43:57;97691.63;;;4.37;100.00
21779;BME280;11050;52.222;20.916;2023-02-25T07:46:23;97696.19;;;4.46;100.00
21779;BME280;11050;52.222;20.916;2023-02-25T07:48:50;97687.47;;;4.49;100.00
21779;BME280;11050;52.222;20.916;2023-02-25T07:51:20;97688.81;;;4.57;100.00
21779;BME280;11050;52.222;20.916;2023-02-25T07:53:48;97695.31;;;4.61;100.00
21779;BME280;11050;52.222;20.916;2023-02-25T07:56:17;97680.59;;;4.62;100.00
21779;BME280;11050;52.222;20.916;2023-02-25T07:58:43;97681.19;;;4.59;100.00
21779;BME280;11050;52.222;20.916;2023-02-25T08:01:11;97684.94;;;4.68;100.00
21779;BME280;11050;52.222;20.916;2023-02-25T08:03:37;97688.19;;;4.70;100.00
21779;BME280;11050;52.222;20.916;2023-02-25T08:06:03;97683.88;;;4.64;100.00
21779;BME280;11050;52.222;20.916;2023-02-25T08:08:34;97680.09;;;4.60;100.00
21779;BME280;11050;52.222;20.916;2023-02-25T08:11:05;97691.97;;;4.74;100.00
21779;BME280;11050;52.222;20.916;2023-02-25T08:13:31;97684.31;;;4.81;100.00
21779;BME280;11050;52.222;20.916;2023-02-25T08:15:57;97682.06;;;4.93;100.00
21779;BME280;11050;52.222;20.916;2023-02-25T08:18:23;97689.38;;;5.03;100.00
21779;BME280;11050;52.222;20.916;2023-02-25T08:20:48;97683.34;;;5.06;100.00
21779;BME280;11050;52.222;20.916;2023-02-25T08:23:14;97683.97;;;4.98;100.00
21779;BME280;11050;52.222;20.916;2023-02-25T08:25:40;97686.88;;;5.06;100.00
21779;BME280;11050;52.222;20.916;2023-02-25T08:28:06;97684.78;;;4.93;100.00
21779;BME280;11050;52.222;20.916;2023-02-25T08:30:31;97679.59;;;4.97;100.00
21779;BME280;11050;52.222;20.916;2023-02-25T08:32:57;97680.31;;;5.12;100.00
21779;BME280;11050;52.222;20.916;2023-02-25T08:35:24;97687.38;;;5.18;100.00
21779;BME280;11050;52.222;20.916;2023-02-25T08:37:51;97686.22;;;5.24;100.00
21779;BME280;11050;52.222;20.916;2023-02-25T08:40:18;97674.69;;;5.37;100.00
21779;BME280;11050;52.222;20.916;2023-02-25T08:42:44;97672.16;;;5.46;100.00
21779;BME280;11050;52.222;20.916;2023-02-25T08:45:10;97686.25;;;5.53;100.00
21779;BME280;11050;52.222;20.916;2023-02-25T08:47:36;97682.88;;;5.66;100.00
21779;BME280;11050;52.222;20.916;2023-02-25T08:50:02;97686.84;;;5.84;100.00
21779;BME280;11050;52.222;20.916;2023-02-25T08:52:30;97689.59;;;5.78;100.00
21779;BME280;11050;52.222;20.916;2023-02-25T08:55:02;97681.91;;;5.86;100.00
21779;BME280;11050;52.222;20.916;2023-02-25T08:57:29;97680.25;;;5.90;100.00
21779;BME280;11050;52.222;20.916;2023-02-25T08:59:55;97684.00;;;5.94;100.00
21779;BME280;11050;52.222;20.916;2023-02-25T09:02:21;97678.38;;;5.85;100.00
21779;BME280;11050;52.222;20.916;2023-02-25T09:04:46;97671.88;;;5.76;100.00
21779;BME280;11050;52.222;20.916;2023-02-25T09:07:15;97685.09;;;5.93;100.00
21779;BME280;11050;52.222;20.916;2023-02-25T09:09:41;97668.19;;;5.96;100.00
21779;BME280;11050;52.222;20.916;2023-02-25T09:12:08;97674.84;;;6.08;100.00
21779;BME280;11050;52.222;20.916;2023-02-25T09:14:35;97676.22;;;6.11;100.00
21779;BME280;11050;52.222;20.916;2023-02-25T09:17:04;97673.13;;;6.17;100.00
21779;BME280;11050;52.222;20.916;2023-02-25T09:19:31;97670.84;;;6.24;100.00
21779;BME280;11050;52.222;20.916;2023-02-25T09:21:57;97666.81;;;6.22;100.00
21779;BME280;11050;52.222;20.916;2023-02-25T09:24:23;97667.25;;;6.29;100.00
21779;BME280;11050;52.222;20.916;2023-02-25T09:26:49;97661.69;;;6.39;100.00
21779;BME280;11050;52.222;20.916;2023-02-25T09:29:15;97665.75;;;6.41;100.00
21779;BME280;11050;52.222;20.916;2023-02-25T09:31:41;97664.94;;;6.41;100.00
21779;BME280;11050;52.222;20.916;2023-02-25T09:34:09;97659.41;;;6.46;100.00
21779;BME280;11050;52.222;20.916;2023-02-25T09:36:38;97667.31;;;6.47;100.00
21779;BME280;11050;52.222;20.916;2023-02-25T09:39:04;97666.56;;;6.42;100.00
21779;BME280;11050;52.222;20.916;2023-02-25T09:41:51;97663.72;;;6.52;100.00
21779;BME280;11050;52.222;20.916;2023-02-25T09:44:20;97662.81;;;6.56;100.00
21779;BME280;11050;52.222;20.916;2023-02-25T09:47:04;97661.22;;;6.74;100.00
21779;BME280;11050;52.222;20.916;2023-02-25T09:49:41;97656.50;;;6.61;100.00
21779;BME280;11050;52.222;20.916;2023-02-25T09:52:31;97667.72;;;6.59;100.00
21779;BME280;11050;52.222;20.916;2023-02-25T09:55:17;97674.06;;;6.73;100.00
21779;BME280;11050;52.222;20.916;2023-02-25T09:57:59;97669.81;;;6.86;100.00
21779;BME280;11050;52.222;20.916;2023-02-25T10:00:31;97674.06;;;6.92;100.00
21779;BME280;11050;52.222;20.916;2023-02-25T10:08:24;97662.34;;;7.10;100.00
21779;BME280;11050;52.222;20.916;2023-02-25T10:11:15;97672.66;;;7.13;98.86
21779;BME280;11050;52.222;20.916;2023-02-25T10:14:05;97656.50;;;6.98;100.00
21779;BME280;11050;52.222;20.916;2023-02-25T10:16:53;97660.50;;;6.87;100.00
21779;BME280;11050;52.222;20.916;2023-02-25T10:19:39;97659.63;;;6.73;100.00
21779;BME280;11050;52.222;20.916;2023-02-25T10:22:53;97690.50;;;6.45;100.00
21779;BME280;11050;52.222;20.916;2023-02-25T10:25:27;97698.81;;;5.83;100.00
21779;BME280;11050;52.222;20.916;2023-02-25T10:28:02;97708.25;;;4.84;100.00
21779;BME280;11050;52.222;20.916;2023-02-25T10:31:06;97687.91;;;4.13;100.00
21779;BME280;11050;52.222;20.916;2023-02-25T10:33:36;97693.94;;;3.74;100.00
21779;BME280;11050;52.222;20.916;2023-02-25T10:36:09;97695.84;;;3.64;100.00
21779;BME280;11050;52.222;20.916;2023-02-25T10:38:44;97683.63;;;3.56;100.00
21779;BME280;11050;52.222;20.916;2023-02-25T10:41:11;97677.09;;;3.77;100.00
21779;BME280;11050;52.222;20.916;2023-02-25T10:43:38;97667.28;;;3.97;100.00
21779;BME280;11050;52.222;20.916;2023-02-25T10:46:12;97667.75;;;4.24;100.00
21779;BME280;11050;52.222;20.916;2023-02-25T10:48:41;97665.75;;;4.44;100.00
21779;BME280;11050;52.222;20.916;2023-02-25T10:51:14;97667.59;;;4.59;100.00
21779;BME280;11050;52.222;20.916;2023-02-25T10:54:12;97669.38;;;4.78;100.00
21779;BME280;11050;52.222;20.916;2023-02-25T10:56:44;97668.47;;;4.93;100.00
21779;BME280;11050;52.222;20.916;2023-02-25T10:59:30;97666.22;;;5.05;100.00
21779;BME280;11050;52.222;20.916;2023-02-25T11:02:00;97665.00;;;5.21;100.00
21779;BME280;11050;52.222;20.916;2023-02-25T11:04:36;97657.56;;;5.32;100.00
21779;BME280;11050;52.222;20.916;2023-02-25T11:07:24;97660.44;;;5.45;100.00
21779;BME280;11050;52.222;20.916;2023-02-25T11:10:18;97658.09;;;5.67;100.00
21779;BME280;11050;52.222;20.916;2023-02-25T11:12:48;97657.50;;;5.70;100.00
21779;BME280;11050;52.222;20.916;2023-02-25T11:18:23;97665.28;;;5.53;100.00
21779;BME280;11050;52.222;20.916;2023-02-25T11:20:59;97674.00;;;5.22;100.00
21779;BME280;11050;52.222;20.916;2023-02-25T11:23:33;97668.72;;;4.97;100.00
21779;BME280;11050;52.222;20.916;2023-02-25T11:26:00;97652.63;;;5.05;100.00
21779;BME280;11050;52.222;20.916;2023-02-25T11:28:48;97655.63;;;5.37;100.00
21779;BME280;11050;52.222;20.916;2023-02-25T11:31:21;97652.16;;;5.60;100.00
21779;BME280;11050;52.222;20.916;2023-02-25T11:34:01;97658.50;;;5.79;100.00
21779;BME280;11050;52.222;20.916;2023-02-25T11:36:33;97665.25;;;5.87;100.00
21779;BME280;11050;52.222;20.916;2023-02-25T11:39:27;97660.41;;;6.08;100.00
21779;BME280;11050;52.222;20.916;2023-02-25T11:42:00;97660.66;;;6.35;100.00
21779;BME280;11050;52.222;20.916;2023-02-25T11:44:39;97652.31;;;6.68;100.00
21779;BME280;11050;52.222;20.916;2023-02-25T11:47:24;97656.81;;;6.78;100.00
21779;BME280;11050;52.222;20.916;2023-02-25T11:52:43;97661.91;;;7.03;100.00
21779;BME280;11050;52.222;20.916;2023-02-25T11:55:51;97659.97;;;6.85;100.00
21779;BME280;11050;52.222;20.916;2023-02-25T11:59:11;97664.00;;;6.50;100.00
21779;BME280;11050;52.222;20.916;2023-02-25T12:10:45;97680.81;;;5.53;100.00
21779;BME280;11050;52.222;20.916;2023-02-25T12:16:53;97668.78;;;5.59;100.00
21779;BME280;11050;52.222;20.916;2023-02-25T12:20:02;97675.47;;;5.71;100.00
21779;BME280;11050;52.222;20.916;2023-02-25T12:25:57;97682.19;;;5.79;100.00
21779;BME280;11050;52.222;20.916;2023-02-25T12:28:49;97673.63;;;5.67;100.00
21779;BME280;11050;52.222;20.916;2023-02-25T12:37:37;97677.94;;;5.68;100.00
21779;BME280;11050;52.222;20.916;2023-02-25T12:40:38;97696.09;;;5.49;100.00
21779;BME280;11050;52.222;20.916;2023-02-25T12:43:20;97704.91;;;4.97;100.00
21779;BME280;11050;52.222;20.916;2023-02-25T12:46:29;97720.47;;;4.23;100.00
21779;BME280;11050;52.222;20.916;2023-02-25T12:51:48;97696.41;;;3.46;100.00
21779;BME280;11050;52.222;20.916;2023-02-25T12:57:38;97691.00;;;3.31;100.00
21779;BME280;11050;52.222;20.916;2023-02-25T13:03:31;97692.63;;;3.32;100.00
21779;BME280;11050;52.222;20.916;2023-02-25T13:09:30;97704.00;;;3.59;100.00
21779;BME280;11050;52.222;20.916;2023-02-25T13:15:00;97707.31;;;5.04;100.00
21779;BME280;11050;52.222;20.916;2023-02-25T13:18:14;97718.94;;;6.86;100.00
21779;BME280;11050;52.222;20.916;2023-02-25T13:27:25;97721.31;;;7.30;100.00
21779;BME280;11050;52.222;20.916;2023-02-25T13:30:25;97721.50;;;6.96;100.00
21779;BME280;11050;52.222;20.916;2023-02-25T13:33:46;97730.69;;;6.63;100.00
21779;BME280;11050;52.222;20.916;2023-02-25T13:39:43;97728.69;;;5.98;100.00
21779;BME280;11050;52.222;20.916;2023-02-25T13:42:53;97738.31;;;5.85;100.00
21779;BME280;11050;52.222;20.916;2023-02-25T13:57:03;97742.72;;;6.10;100.00
21779;BME280;11050;52.222;20.916;2023-02-25T14:05:26;97760.19;;;6.09;100.00
21779;BME280;11050;52.222;20.916;2023-02-25T14:08:39;97754.63;;;6.19;100.00
21779;BME280;11050;52.222;20.916;2023-02-25T14:11:41;97781.00;;;6.99;100.00
21779;BME280;11050;52.222;20.916;2023-02-25T14:14:34;97765.28;;;7.10;100.00
21779;BME280;11050;52.222;20.916;2023-02-25T14:23:58;97781.22;;;6.79;100.00
21779;BME280;11050;52.222;20.916;2023-02-25T14:30:36;97791.19;;;6.18;100.00
21779;BME280;11050;52.222;20.916;2023-02-25T14:39:18;97802.47;;;5.67;100.00
21779;BME280;11050;52.222;20.916;2023-02-25T14:48:01;97806.19;;;5.38;100.00
21779;BME280;11050;52.222;20.916;2023-02-25T14:50:59;97806.81;;;5.30;100.00
21779;BME280;11050;52.222;20.916;2023-02-25T14:54:08;97819.59;;;5.29;100.00
21779;BME280;11050;52.222;20.916;2023-02-25T14:57:15;97838.44;;;5.16;100.00
21779;BME280;11050;52.222;20.916;2023-02-25T14:59:59;97830.63;;;4.94;100.00
21779;BME280;11050;52.222;20.916;2023-02-25T15:09:18;97844.00;;;4.75;100.00
21779;BME280;11050;52.222;20.916;2023-02-25T15:15:57;97847.78;;;4.84;100.00
21779;BME280;11050;52.222;20.916;2023-02-25T15:18:40;97855.13;;;4.89;100.00
21779;BME280;11050;52.222;20.916;2023-02-25T15:21:42;97858.13;;;4.88;100.00
21779;BME280;11050;52.222;20.916;2023-02-25T15:24:40;97857.34;;;4.82;100.00
21779;BME280;11050;52.222;20.916;2023-02-25T15:30:04;97866.56;;;4.91;100.00